Time;durP1;ratioP1;P1;durP2;ratioP2;P2;SDS_P1;SDS_P2;PMS_P1;PMS_P2;Temp;Humidity;BMP_temperature;BMP_pressure;BME280_temperature;BME280_humidity;BME280_pressure;Samples;Min_cycle;Max_cycle;Signal;HPM_P1;HPM_P2
2021/01/22 00:00:38;;;;;;;2.90;2.38;;;;;;;6.68;65.21;94785.53;6245224;23;20326;-77
2021/01/22 00:03:04;;;;;;;5.32;3.22;;;;;;;6.72;64.05;94766.00;6245195;23;20039;-78
2021/01/22 00:05:31;;;;;;;2.78;2.45;;;;;;;6.76;64.46;94764.59;6245080;23;20017;-77
2021/01/22 00:07:58;;;;;;;2.45;2.25;;;;;;;6.78;64.30;94768.56;6245250;23;20024;-77
2021/01/22 00:10:26;;;;;;;2.75;2.08;;;;;;;6.84;65.60;94782.50;6244858;23;20020;-77
2021/01/22 00:12:53;;;;;;;7.13;3.97;;;;;;;6.90;65.93;94765.34;6245052;23;20030;-78
2021/01/22 00:15:19;;;;;;;3.85;2.08;;;;;;;6.91;64.46;94757.38;6244530;23;20685;-78
2021/01/22 00:17:45;;;;;;;4.07;2.65;;;;;;;6.95;64.64;94765.53;6245044;23;20102;-78
2021/01/22 00:20:13;;;;;;;3.28;2.55;;;;;;;7.00;64.58;94769.13;6245003;23;20031;-77
2021/01/22 00:22:39;;;;;;;3.22;2.50;;;;;;;7.05;65.10;94767.72;6246397;23;20035;-78
2021/01/22 00:25:07;;;;;;;2.40;2.00;;;;;;;7.08;64.37;94762.09;6246023;23;20027;-77
2021/01/22 00:27:35;;;;;;;2.15;1.58;;;;;;;7.13;64.49;94759.72;6245419;23;20024;-77
2021/01/22 00:30:02;;;;;;;3.90;2.67;;;;;;;7.15;63.57;94755.09;6245271;23;20024;-77
2021/01/22 00:32:29;;;;;;;2.83;2.45;;;;;;;7.17;64.02;94758.28;6246015;23;20414;-77
2021/01/22 00:34:55;;;;;;;4.38;3.15;;;;;;;7.18;63.18;94757.28;6248670;23;20020;-77
2021/01/22 00:37:22;;;;;;;3.22;2.42;;;;;;;7.20;63.39;94756.06;6248270;23;20024;-77
2021/01/22 00:39:48;;;;;;;3.70;2.00;;;;;;;7.23;63.24;94750.47;6248138;23;20027;-77
2021/01/22 00:42:15;;;;;;;2.50;1.73;;;;;;;7.26;62.96;94754.47;6248668;23;20356;-77
2021/01/22 00:44:42;;;;;;;2.63;1.50;;;;;;;7.28;63.47;94757.66;6248431;23;20024;-77
2021/01/22 00:47:09;;;;;;;2.13;1.40;;;;;;;7.31;64.35;94759.81;6248371;23;20348;-78
2021/01/22 00:49:35;;;;;;;1.52;0.98;;;;;;;7.34;64.17;94751.63;6248291;23;20020;-77
2021/01/22 00:52:02;;;;;;;0.90;0.52;;;;;;;7.40;64.45;94750.78;6247991;23;20024;-77
2021/01/22 00:54:29;;;;;;;0.50;0.50;;;;;;;7.49;63.71;94748.75;6248079;23;20020;-78
2021/01/22 00:56:55;;;;;;;0.28;0.28;;;;;;;7.58;63.61;94747.50;6248269;23;20348;-76
2021/01/22 00:59:22;;;;;;;0.20;0.20;;;;;;;7.67;63.36;94745.47;6258671;23;20103;-77
2021/01/22 01:01:49;;;;;;;0.10;0.10;;;;;;;7.73;63.95;94749.03;6261086;23;20079;-78
2021/01/22 01:04:16;;;;;;;0.73;0.10;;;;;;;7.78;63.16;94731.84;6260593;23;20098;-79
2021/01/22 01:06:42;;;;;;;0.10;0.10;;;;;;;7.84;63.38;94736.16;6251188;23;20016;-78
2021/01/22 01:09:09;;;;;;;0.65;0.47;;;;;;;7.88;63.22;94730.56;6247762;23;20044;-78
2021/01/22 01:11:35;;;;;;;0.30;0.30;;;;;;;7.92;62.88;94731.75;6247622;23;20030;-77
2021/01/22 01:14:02;;;;;;;0.20;0.20;;;;;;;7.96;63.38;94730.28;6248326;23;20038;-78
2021/01/22 01:16:29;;;;;;;0.20;0.20;;;;;;;7.99;63.59;94727.28;6247986;23;20473;-78
2021/01/22 01:18:57;;;;;;;0.20;0.20;;;;;;;8.01;62.77;94735.66;6247810;23;20027;-78
2021/01/22 01:21:23;;;;;;;0.20;0.10;;;;;;;8.03;62.84;94733.66;6247216;23;20020;-78
2021/01/22 01:23:49;;;;;;;0.32;0.22;;;;;;;8.03;62.70;94729.25;6248130;23;20034;-78
2021/01/22 01:26:16;;;;;;;0.10;0.10;;;;;;;8.06;62.84;94735.81;6247830;23;20352;-77
2021/01/22 01:28:42;;;;;;;0.13;0.13;;;;;;;8.12;63.48;94741.97;6247821;23;20039;-78
2021/01/22 01:31:09;;;;;;;0.10;0.10;;;;;;;8.14;62.80;94725.19;6247305;23;20016;-78
2021/01/22 01:33:36;;;;;;;0.47;0.20;;;;;;;8.18;62.60;94728.94;6248146;23;20047;-78
2021/01/22 01:36:04;;;;;;;1.48;0.10;;;;;;;8.20;62.96;94726.94;6248121;23;20017;-78
2021/01/22 01:38:31;;;;;;;0.08;0.08;;;;;;;8.24;63.83;94738.50;6248176;23;20027;-78
2021/01/22 01:40:57;;;;;;;0.95;0.20;;;;;;;8.24;63.61;94730.69;6247870;23;20016;-78
2021/01/22 01:43:25;;;;;;;0.30;0.28;;;;;;;8.28;63.97;94740.66;6248292;23;20024;-78
2021/01/22 01:45:52;;;;;;;0.77;0.13;;;;;;;8.29;63.60;94737.03;6246125;23;20042;-78
2021/01/22 01:48:19;;;;;;;0.10;0.10;;;;;;;8.28;63.79;94722.47;6246393;23;20016;-78
2021/01/22 01:50:46;;;;;;;0.17;0.17;;;;;;;8.28;64.06;94731.03;6245751;23;20027;-78
2021/01/22 01:53:13;;;;;;;0.20;0.20;;;;;;;8.27;63.88;94723.47;6246594;23;20021;-78
2021/01/22 01:55:40;;;;;;;0.20;0.20;;;;;;;8.28;64.28;94727.66;6246340;23;20020;-78
2021/01/22 01:58:07;;;;;;;0.25;0.25;;;;;;;8.26;64.07;94701.88;6246242;23;20020;-78
2021/01/22 02:00:35;;;;;;;0.40;0.30;;;;;;;8.25;64.04;94702.91;6245864;23;20356;-78
2021/01/22 02:03:02;;;;;;;0.30;0.30;;;;;;;8.24;65.03;94709.91;6246298;23;20016;-78
2021/01/22 02:05:30;;;;;;;0.30;0.30;;;;;;;8.24;64.65;94709.91;6246197;23;20046;-78
2021/01/22 02:07:57;;;;;;;0.30;0.30;;;;;;;8.21;64.64;94707.72;6246197;23;20023;-78
2021/01/22 02:10:24;;;;;;;0.30;0.20;;;;;;;8.22;64.35;94709.34;6245819;23;20046;-78
2021/01/22 02:12:53;;;;;;;0.22;0.22;;;;;;;8.20;64.03;94702.75;6246339;23;20082;-78
2021/01/22 02:15:20;;;;;;;0.52;0.20;;;;;;;8.20;64.80;94687.97;6246211;23;20445;-78
2021/01/22 02:17:47;;;;;;;1.48;0.30;;;;;;;8.20;64.90;94703.56;6245862;23;20473;-78
2021/01/22 02:20:27;;;;;;;0.90;0.50;;;;;;;8.21;64.56;94712.91;6245441;23;20024;-78
2021/01/22 02:22:55;;;;;;;0.50;0.28;;;;;;;8.20;64.23;94703.56;6246183;23;20024;-78
2021/01/22 02:25:27;;;;;;;1.05;0.20;;;;;;;8.21;64.21;94709.53;6245452;23;20016;-78
2021/01/22 02:30:22;;;;;;;0.50;0.50;;;;;;;8.19;64.53;94701.16;6214675;23;20361;-79
2021/01/22 02:32:49;;;;;;;0.57;0.40;;;;;;;8.18;64.78;94700.38;6215620;23;20044;-79
2021/01/22 02:35:20;;;;;;;0.45;0.40;;;;;;;8.18;64.45;94695.19;6215492;23;20330;-79
2021/01/22 02:37:49;;;;;;;0.40;0.30;;;;;;;8.19;65.67;94688.97;6215655;23;20020;-79
2021/01/22 02:40:18;;;;;;;0.30;0.30;;;;;;;8.18;64.77;94689.97;6215444;23;20020;-79
2021/01/22 02:42:48;;;;;;;1.20;0.38;;;;;;;8.17;64.33;94698.75;6215702;23;20071;-79
2021/01/22 02:45:17;;;;;;;2.45;0.40;;;;;;;8.17;64.18;94698.75;6215770;23;20099;-79
2021/01/22 02:47:46;;;;;;;1.13;0.30;;;;;;;8.17;64.33;94701.38;6215422;23;20017;-79
2021/01/22 02:50:16;;;;;;;0.93;0.32;;;;;;;8.19;65.02;94701.16;6215006;23;20333;-78
2021/01/22 02:52:43;;;;;;;1.58;0.65;;;;;;;8.18;64.42;94705.56;6215133;23;20056;-78
2021/01/22 02:55:13;;;;;;;0.63;0.30;;;;;;;8.17;64.55;94706.56;6215550;23;20021;-79
2021/01/22 02:57:49;;;;;;;1.42;0.40;;;;;;;8.16;63.52;94707.59;6214887;23;20020;-78
2021/01/22 03:00:19;;;;;;;1.33;0.40;;;;;;;8.16;63.92;94692.00;6214868;23;20024;-78
2021/01/22 03:02:52;;;;;;;1.00;0.50;;;;;;;8.16;63.87;94702.38;6215761;23;20028;-79
2021/01/22 03:05:23;;;;;;;0.90;0.50;;;;;;;8.15;64.53;94703.38;6215262;23;20071;-79
2021/01/22 03:07:55;;;;;;;0.90;0.40;;;;;;;8.15;64.41;94700.78;6215463;23;20490;-79
2021/01/22 03:10:24;;;;;;;1.80;0.40;;;;;;;8.16;64.26;94702.38;6214828;23;20021;-79
2021/01/22 03:12:52;;;;;;;0.52;0.40;;;;;;;8.15;65.02;94703.38;6215181;23;20026;-79
2021/01/22 03:15:20;;;;;;;1.10;0.77;;;;;;;8.16;64.69;94712.00;6215066;23;20020;-79
2021/01/22 03:17:48;;;;;;;0.93;0.60;;;;;;;8.15;64.85;94705.97;6214899;23;20017;-79
2021/01/22 03:20:16;;;;;;;1.25;0.70;;;;;;;8.16;64.58;94697.19;6215018;23;20107;-79
2021/01/22 03:22:43;;;;;;;0.73;0.50;;;;;;;8.13;64.07;94708.00;6215292;23;20104;-79
2021/01/22 03:25:11;;;;;;;1.58;0.70;;;;;;;8.11;64.08;94696.22;6214828;23;20026;-78
2021/01/22 03:27:38;;;;;;;1.95;0.40;;;;;;;8.11;64.58;94704.84;6214878;23;20111;-79
2021/01/22 03:30:06;;;;;;;2.33;0.60;;;;;;;8.10;64.24;94695.44;6214360;23;20412;-78
2021/01/22 03:32:32;;;;;;;1.75;0.63;;;;;;;8.10;64.79;94700.63;6241030;23;20080;-78
2021/01/22 03:35:00;;;;;;;0.95;0.60;;;;;;;8.09;64.08;94699.06;6242374;23;20064;-79
2021/01/22 03:37:27;;;;;;;0.40;0.32;;;;;;;8.06;64.52;94683.88;6230940;23;20524;-79
2021/01/22 03:39:53;;;;;;;1.55;0.70;;;;;;;8.04;64.69;94680.69;6215450;23;20099;-78
2021/01/22 03:42:20;;;;;;;1.35;0.70;;;;;;;8.03;64.23;94687.72;6214803;23;20503;-78
2021/01/22 03:44:46;;;;;;;0.60;0.60;;;;;;;8.03;64.58;94684.31;6215073;23;20369;-79
2021/01/22 03:47:13;;;;;;;0.75;0.70;;;;;;;8.01;64.36;94676.75;6214717;23;20020;-79
2021/01/22 03:49:39;;;;;;;2.50;0.82;;;;;;;7.99;64.11;94676.16;6214000;23;20028;-78
2021/01/22 03:52:07;;;;;;;1.92;0.90;;;;;;;7.97;64.29;94682.56;6214821;23;20028;-79
2021/01/22 03:54:33;;;;;;;3.63;1.50;;;;;;;7.95;64.04;94680.19;6214744;23;20029;-78
2021/01/22 03:56:59;;;;;;;1.75;0.80;;;;;;;7.94;65.11;94683.00;6214631;23;20349;-78
2021/01/22 03:59:28;;;;;;;1.58;0.93;;;;;;;7.93;65.22;94671.00;6214536;23;20024;-79
2021/01/22 04:01:54;;;;;;;4.70;1.13;;;;;;;7.90;64.96;94676.66;6214524;23;20461;-79
2021/01/22 04:04:21;;;;;;;1.48;0.90;;;;;;;7.87;65.14;94671.84;6214958;23;20054;-79
2021/01/22 04:06:59;;;;;;;2.30;1.27;;;;;;;7.82;65.21;94668.09;6214536;23;20071;-79
2021/01/22 04:09:26;;;;;;;2.55;0.82;;;;;;;7.80;65.22;94679.69;6214408;23;20043;-79
2021/01/22 04:11:53;;;;;;;2.03;0.95;;;;;;;7.77;65.29;94678.31;6214716;23;20027;-79
2021/01/22 04:14:19;;;;;;;2.00;0.90;;;;;;;7.75;65.55;94680.34;6214902;23;20024;-79
2021/01/22 04:16:46;;;;;;;1.65;1.05;;;;;;;7.72;65.60;94672.97;6214691;23;20027;-78
2021/01/22 04:19:12;;;;;;;1.13;0.82;;;;;;;7.69;65.33;94673.38;6214167;23;20025;-79
2021/01/22 04:21:39;;;;;;;1.00;0.70;;;;;;;7.66;64.59;94686.78;6214576;23;20021;-78
2021/01/22 04:24:06;;;;;;;3.67;1.10;;;;;;;7.63;64.74;94671.63;6214683;23;20027;-78
2021/01/22 04:26:34;;;;;;;1.60;0.80;;;;;;;7.62;64.45;94670.06;6214512;23;20020;-79
2021/01/22 04:29:00;;;;;;;2.67;1.10;;;;;;;7.59;64.44;94666.09;6214419;23;20020;-78
2021/01/22 04:31:28;;;;;;;3.05;1.10;;;;;;;7.57;64.08;94669.91;6214388;23;20074;-79
2021/01/22 04:33:54;;;;;;;1.88;1.08;;;;;;;7.54;64.66;94659.91;6214614;23;20021;-78
2021/01/22 04:36:21;;;;;;;7.88;1.58;;;;;;;7.51;64.75;94660.34;6214425;23;20412;-78
2021/01/22 04:38:47;;;;;;;4.47;1.05;;;;;;;7.50;64.65;94662.16;6214374;23;20021;-78
2021/01/22 04:41:14;;;;;;;3.15;1.10;;;;;;;7.48;64.55;94660.75;6214051;23;20020;-79
2021/01/22 04:43:44;;;;;;;4.38;1.38;;;;;;;7.48;64.11;94642.59;6214481;23;20029;-78
2021/01/22 04:46:11;;;;;;;2.38;1.02;;;;;;;7.48;64.04;94632.22;6214514;23;20432;-79
2021/01/22 04:48:38;;;;;;;1.23;0.90;;;;;;;7.46;63.74;94629.06;6214414;23;20345;-78
2021/01/22 04:51:05;;;;;;;2.53;1.42;;;;;;;7.45;64.60;94619.69;6213986;23;20016;-78
2021/01/22 04:53:35;;;;;;;2.55;1.10;;;;;;;7.42;64.36;94626.09;6214472;23;20074;-78
2021/01/22 04:56:03;;;;;;;3.20;1.20;;;;;;;7.41;64.97;94622.72;6214435;23;20024;-78
2021/01/22 04:58:32;;;;;;;3.35;0.80;;;;;;;7.39;64.59;94618.72;6214538;23;20040;-79
2021/01/22 05:01:03;;;;;;;3.10;1.00;;;;;;;7.38;64.13;94617.91;6214058;23;20020;-78
2021/01/22 05:03:30;;;;;;;2.28;0.95;;;;;;;7.37;63.62;94623.34;6214399;23;20071;-78
2021/01/22 05:05:57;;;;;;;2.58;1.02;;;;;;;7.38;63.78;94622.31;6213967;23;20020;-79
2021/01/22 05:08:24;;;;;;;1.92;1.20;;;;;;;7.38;64.50;94623.09;6214019;23;20457;-78
2021/01/22 05:10:50;;;;;;;0.73;0.73;;;;;;;7.38;63.80;94615.31;6214019;23;20427;-79
2021/01/22 05:13:17;;;;;;;1.48;0.60;;;;;;;7.39;64.45;94605.75;6214318;23;20365;-79
2021/01/22 05:16:10;;;;;;;3.45;1.08;;;;;;;7.40;64.36;94602.94;6213933;23;20521;-79
2021/01/22 05:18:38;;;;;;;1.08;0.90;;;;;;;7.39;64.54;94609.16;6214273;23;20021;-79
2021/01/22 05:21:08;;;;;;;1.38;1.08;;;;;;;7.39;65.38;94603.97;6216041;23;20353;-79
2021/01/22 05:23:37;;;;;;;2.45;0.93;;;;;;;7.38;64.22;94594.56;6215845;23;20479;-78
2021/01/22 05:26:06;;;;;;;4.38;1.40;;;;;;;7.37;64.92;94605.19;6216054;23;20024;-79
2021/01/22 05:28:34;;;;;;;4.32;0.95;;;;;;;7.37;64.18;94590.41;6215935;23;20027;-79
2021/01/22 05:31:02;;;;;;;0.85;0.60;;;;;;;7.38;64.95;94589.38;6215443;23;20503;-78
2021/01/22 05:33:30;;;;;;;4.47;0.82;;;;;;;7.38;65.42;94583.41;6216152;23;20021;-78
2021/01/22 05:35:57;;;;;;;1.42;0.40;;;;;;;7.36;64.39;94591.41;6216082;23;20016;-79
2021/01/22 05:38:39;;;;;;;1.52;0.55;;;;;;;7.34;64.04;94580.44;6216000;23;20155;-78
2021/01/22 05:41:07;;;;;;;3.53;0.55;;;;;;;7.35;64.23;94592.41;6215829;23;20488;-78
2021/01/22 05:43:35;;;;;;;2.33;0.50;;;;;;;7.33;63.90;94584.06;6215975;23;20020;-78
2021/01/22 05:46:03;;;;;;;2.30;0.55;;;;;;;7.32;64.02;94574.66;6215780;23;20021;-78
2021/01/22 05:48:29;;;;;;;1.65;0.30;;;;;;;7.33;65.15;94573.69;6215736;23;20027;-79
2021/01/22 05:50:58;;;;;;;1.38;0.20;;;;;;;7.36;65.57;94582.84;6215867;23;20103;-79
2021/01/22 05:53:26;;;;;;;1.20;0.40;;;;;;;7.34;64.34;94580.44;6216016;23;20051;-78
2021/01/22 05:56:06;;;;;;;0.95;0.40;;;;;;;7.33;65.10;94576.28;6216078;23;20017;-78
2021/01/22 05:58:33;;;;;;;0.60;0.40;;;;;;;7.34;65.29;94577.84;6217444;23;20036;-79
2021/01/22 06:01:08;;;;;;;1.42;0.30;;;;;;;7.33;65.02;94580.66;6215767;23;20035;-78
2021/01/22 06:03:35;;;;;;;0.95;0.75;;;;;;;7.33;65.14;94575.47;6216108;23;20021;-79
2021/01/22 06:06:05;;;;;;;0.50;0.35;;;;;;;7.33;64.62;94578.88;6217220;23;20016;-79
2021/01/22 06:08:31;;;;;;;0.70;0.22;;;;;;;7.32;64.47;94574.66;6216163;23;20128;-78
2021/01/22 06:11:00;;;;;;;0.57;0.30;;;;;;;7.31;64.03;94570.50;6215520;23;20013;-78
2021/01/22 06:13:30;;;;;;;0.50;0.30;;;;;;;7.31;65.14;94585.28;6215806;23;20519;-78
2021/01/22 06:15:58;;;;;;;3.35;1.40;;;;;;;7.31;64.64;94585.28;6215906;23;20024;-79
2021/01/22 06:18:32;;;;;;;1.95;0.40;;;;;;;7.32;64.86;94584.25;6215374;23;20484;-79
2021/01/22 06:21:08;;;;;;;0.30;0.20;;;;;;;7.31;64.10;94580.88;6215244;23;20031;-77
2021/01/22 06:23:36;;;;;;;2.08;0.35;;;;;;;7.32;64.49;94571.28;6216492;23;20024;-76
2021/01/22 06:26:03;;;;;;;0.60;0.40;;;;;;;7.31;64.41;94565.31;6215299;23;20017;-78
2021/01/22 06:28:32;;;;;;;1.55;0.40;;;;;;;7.33;64.37;94554.72;6215376;23;20021;-78
2021/01/22 06:30:59;;;;;;;0.38;0.30;;;;;;;7.34;64.94;94559.69;6215337;23;20032;-79
2021/01/22 06:33:25;;;;;;;1.23;0.35;;;;;;;7.33;64.14;94557.31;6216076;23;20382;-79
2021/01/22 06:35:53;;;;;;;1.75;0.60;;;;;;;7.35;64.70;94566.47;6215529;23;20084;-76
2021/01/22 06:38:22;;;;;;;0.98;0.60;;;;;;;7.35;65.57;94550.13;6215291;23;20108;-76
2021/01/22 06:40:51;;;;;;;1.30;0.32;;;;;;;7.35;64.59;94558.69;6215136;23;20025;-78
2021/01/22 06:43:18;;;;;;;1.67;0.30;;;;;;;7.34;64.17;94564.09;6215625;23;20020;-77
2021/01/22 06:45:45;;;;;;;1.15;0.35;;;;;;;7.33;64.79;94562.50;6215735;23;20020;-79
2021/01/22 06:48:11;;;;;;;0.68;0.28;;;;;;;7.35;64.90;94571.66;6217136;23;20356;-81
2021/01/22 06:50:39;;;;;;;1.85;0.63;;;;;;;7.35;64.46;94563.09;6220398;23;20017;-79
2021/01/22 06:53:16;;;;;;;1.27;0.38;;;;;;;7.36;65.49;94569.84;6217188;23;20031;-81
2021/01/22 06:56:10;;;;;;;0.50;0.30;;;;;;;7.35;64.03;94566.47;6217010;23;20361;-81
2021/01/22 06:58:37;;;;;;;1.40;0.60;;;;;;;7.33;64.54;94573.69;6213817;23;20150;-81
2021/01/22 07:01:20;;;;;;;1.15;0.75;;;;;;;7.32;64.67;94572.06;6216864;23;20097;-80
2021/01/22 07:03:49;;;;;;;0.43;0.40;;;;;;;7.33;65.71;94563.31;6216747;23;20488;-81
2021/01/22 07:06:48;;;;;;;0.50;0.20;;;;;;;7.35;64.47;94571.66;6217375;23;20103;-81
2021/01/22 07:09:15;;;;;;;0.28;0.20;;;;;;;7.35;64.73;94576.06;6212116;23;20028;-80
2021/01/22 07:11:53;;;;;;;2.13;0.70;;;;;;;7.35;65.68;94568.28;6217639;23;20099;-80
2021/01/22 07:14:35;;;;;;;2.65;0.55;;;;;;;7.37;66.67;94574.06;6218385;23;20032;-80
2021/01/22 07:17:13;;;;;;;3.75;0.60;;;;;;;7.37;64.81;94561.88;6218239;23;20032;-80
2021/01/22 07:19:53;;;;;;;1.83;0.32;;;;;;;7.37;65.17;94564.47;6222216;23;20017;-81
2021/01/22 07:22:21;;;;;;;1.13;0.82;;;;;;;7.40;65.01;94576.22;6242195;23;20008;-81
2021/01/22 07:24:52;;;;;;;1.23;0.50;;;;;;;7.39;64.72;94561.66;6228174;23;20531;-80
2021/01/22 07:27:20;;;;;;;1.55;0.50;;;;;;;7.42;65.07;94559.44;6218401;23;20091;-80
2021/01/22 07:30:08;;;;;;;2.17;1.17;;;;;;;7.46;64.77;94551.25;6217626;23;20016;-80
2021/01/22 07:32:34;;;;;;;2.10;0.40;;;;;;;7.46;64.30;94556.44;6218524;23;20083;-80
2021/01/22 07:35:02;;;;;;;0.95;0.30;;;;;;;7.46;64.11;94561.63;6218430;23;20103;-81
2021/01/22 07:37:36;;;;;;;1.08;0.40;;;;;;;7.48;64.25;94564.78;6218121;23;20016;-81
2021/01/22 07:40:07;;;;;;;0.90;0.30;;;;;;;7.49;64.09;94563.78;6217309;23;20013;-80
2021/01/22 07:42:35;;;;;;;3.05;0.75;;;;;;;7.51;63.97;94564.34;6217669;23;20016;-81
2021/01/22 07:45:07;;;;;;;1.40;0.93;;;;;;;7.53;63.97;94559.75;6216577;23;20017;-80
2021/01/22 07:47:36;;;;;;;0.93;0.40;;;;;;;7.55;63.78;94552.56;6222993;23;20052;-80
2021/01/22 07:50:06;;;;;;;0.73;0.30;;;;;;;7.57;63.59;94566.13;6246619;23;20056;-80
2021/01/22 07:52:38;;;;;;;1.10;0.65;;;;;;;7.58;63.16;94562.50;6246934;23;20141;-80
2021/01/22 07:55:13;;;;;;;3.37;0.50;;;;;;;7.60;63.78;94563.88;6247487;23;20465;-80
2021/01/22 07:57:40;;;;;;;2.67;0.57;;;;;;;7.63;64.21;94560.03;6248555;23;20313;-81
2021/01/22 08:00:09;;;;;;;1.15;0.30;;;;;;;7.64;63.82;94565.03;6248769;23;20074;-79
2021/01/22 08:02:36;;;;;;;1.98;0.70;;;;;;;7.67;63.76;94556.03;6246040;23;20024;-80
2021/01/22 08:05:07;;;;;;;3.85;0.77;;;;;;;7.69;63.21;94550.63;6246936;22;20020;-80
2021/01/22 08:07:36;;;;;;;3.33;0.47;;;;;;;7.71;63.59;94574.56;6246244;23;20050;-80
2021/01/22 08:10:06;;;;;;;1.40;0.45;;;;;;;7.73;63.85;94578.53;6245399;23;20020;-80
2021/01/22 08:12:33;;;;;;;0.43;0.17;;;;;;;7.76;63.56;94572.13;6245777;23;20052;-79
2021/01/22 08:15:13;;;;;;;1.25;0.28;;;;;;;7.77;63.14;94574.50;6247714;23;20020;-81
2021/01/22 08:17:55;;;;;;;0.70;0.30;;;;;;;7.80;63.87;94553.31;6250790;23;20016;-81
2021/01/22 08:20:22;;;;;;;0.47;0.20;;;;;;;7.83;64.17;94578.84;6245802;22;20021;-76
2021/01/22 08:22:52;;;;;;;2.42;0.47;;;;;;;7.89;64.05;94571.19;6243374;23;20062;-75
2021/01/22 08:25:28;;;;;;;0.90;0.30;;;;;;;7.93;63.79;94577.56;6244468;23;20062;-79
2021/01/22 08:43:24;;;;;;;0.80;0.22;;;;;;;8.11;62.09;94562.00;6172097;23;20029;-81
2021/01/22 09:34:49;;;;;;;2.25;0.52;;;;;;;9.16;60.10;94553.13;6242011;23;20030;-77
2021/01/22 09:37:16;;;;;;;2.70;0.80;;;;;;;9.24;59.95;94552.78;6246972;23;20022;-74
2021/01/22 09:39:48;;;;;;;1.23;0.60;;;;;;;9.35;58.82;94556.41;6247014;23;20024;-78
2021/01/22 09:42:15;;;;;;;3.90;0.55;;;;;;;9.44;58.51;94556.88;6247263;23;20020;-79
2021/01/22 09:44:42;;;;;;;1.45;0.40;;;;;;;9.51;57.78;94556.78;6246593;23;20376;-79
2021/01/22 09:47:13;;;;;;;2.05;0.30;;;;;;;9.61;56.51;94557.03;6247786;23;20047;-79
2021/01/22 09:49:40;;;;;;;1.50;0.60;;;;;;;9.70;57.37;94563.47;6248972;23;20021;-79
2021/01/22 09:52:06;;;;;;;2.20;0.70;;;;;;;9.80;57.33;94555.91;6248093;23;20453;-78
2021/01/22 09:54:33;;;;;;;7.07;1.08;;;;;;;9.95;58.25;94557.22;6248355;23;20472;-79
2021/01/22 09:57:00;;;;;;;0.65;0.50;;;;;;;10.05;57.19;94566.06;6247907;23;20471;-78
2021/01/22 09:59:28;;;;;;;5.35;1.08;;;;;;;10.15;56.53;94562.13;6246920;23;20379;-78
2021/01/22 10:01:54;;;;;;;1.85;0.40;;;;;;;10.26;55.69;94554.25;6246397;23;20024;-78
2021/01/22 10:04:21;;;;;;;1.73;0.60;;;;;;;10.36;55.38;94563.34;6247461;23;20052;-78
2021/01/22 10:06:49;;;;;;;0.80;0.20;;;;;;;10.45;55.26;94561.94;6246673;23;20039;-78
2021/01/22 10:09:16;;;;;;;0.90;0.32;;;;;;;10.52;54.93;94560.03;6247899;23;20026;-79
2021/01/22 10:11:43;;;;;;;2.60;0.50;;;;;;;10.64;54.81;94560.75;6247532;23;20020;-79
2021/01/22 10:14:11;;;;;;;1.38;0.40;;;;;;;10.75;54.91;94566.97;6247630;23;20020;-78
2021/01/22 10:16:39;;;;;;;1.65;0.47;;;;;;;10.87;54.21;94564.31;6247471;23;20016;-79
2021/01/22 10:19:06;;;;;;;3.53;0.40;;;;;;;10.97;53.81;94563.72;6247392;23;20031;-76
2021/01/22 10:21:32;;;;;;;1.60;0.30;;;;;;;11.09;55.40;94559.25;6246016;23;20030;-77
2021/01/22 10:23:59;;;;;;;1.80;0.55;;;;;;;11.18;54.19;94564.88;6246769;23;20035;-76
2021/01/22 10:26:25;;;;;;;0.98;0.20;;;;;;;11.26;53.79;94572.28;6246327;23;20016;-77
2021/01/22 10:28:52;;;;;;;1.23;0.30;;;;;;;11.36;55.24;94559.41;6247099;23;20020;-76
2021/01/22 10:31:19;;;;;;;3.13;0.70;;;;;;;11.50;53.38;94557.28;6245969;23;20976;-77
2021/01/22 10:33:47;;;;;;;1.83;0.40;;;;;;;11.64;54.23;94561.16;6245675;23;20460;-77
2021/01/22 10:36:15;;;;;;;6.72;0.65;;;;;;;11.72;52.77;94557.38;6246846;23;20027;-77
2021/01/22 10:38:42;;;;;;;1.73;0.50;;;;;;;11.68;51.79;94554.44;6246519;23;20470;-76
2021/01/22 10:41:09;;;;;;;0.32;0.30;;;;;;;11.60;52.03;94547.00;6246639;23;20022;-77
2021/01/22 10:43:35;;;;;;;2.53;0.30;;;;;;;11.51;51.67;94549.22;6246781;23;20028;-77
2021/01/22 10:46:02;;;;;;;0.95;0.30;;;;;;;11.44;52.85;94548.59;6246280;23;20024;-77
2021/01/22 10:48:28;;;;;;;1.20;0.40;;;;;;;11.40;52.80;94542.25;6246372;23;20016;-77
2021/01/22 10:50:56;;;;;;;4.50;0.38;;;;;;;11.39;54.67;94537.25;6245977;23;20456;-77
2021/01/22 10:53:24;;;;;;;2.75;0.50;;;;;;;11.41;53.58;94538.59;6246976;23;20020;-77
2021/01/22 10:55:51;;;;;;;2.33;0.57;;;;;;;11.52;53.38;94537.75;6246008;23;20023;-77
2021/01/22 10:58:17;;;;;;;2.47;0.45;;;;;;;11.63;52.49;94522.22;6246583;23;20095;-76
2021/01/22 11:00:44;;;;;;;1.35;0.28;;;;;;;11.68;51.82;94523.09;6245852;23;20046;-77
2021/01/22 11:03:11;;;;;;;1.48;0.45;;;;;;;11.69;52.13;94514.22;6244992;23;20031;-77
2021/01/22 11:05:38;;;;;;;3.35;0.75;;;;;;;11.72;51.05;94516.38;6246554;23;20024;-77
2021/01/22 11:08:06;;;;;;;0.88;0.40;;;;;;;11.74;50.83;94516.13;6245348;23;20476;-77
2021/01/22 11:10:32;;;;;;;2.38;0.40;;;;;;;11.75;50.82;94512.47;6245089;23;20053;-77
2021/01/22 11:12:59;;;;;;;1.00;0.38;;;;;;;11.78;52.07;94508.59;6245439;23;20016;-76
2021/01/22 11:15:27;;;;;;;0.57;0.32;;;;;;;11.80;51.52;94502.09;6247507;23;20024;-77
2021/01/22 11:17:54;;;;;;;3.13;0.52;;;;;;;11.81;51.07;94501.09;6251440;23;20095;-76
2021/01/22 11:20:21;;;;;;;1.17;0.30;;;;;;;11.87;50.95;94494.09;6249630;23;20099;-77
2021/01/22 11:22:49;;;;;;;2.00;0.30;;;;;;;11.92;50.16;94492.38;6250212;23;20043;-77
2021/01/22 11:25:17;;;;;;;1.05;0.82;;;;;;;11.93;50.38;94483.50;6247778;23;20024;-77
2021/01/22 11:27:44;;;;;;;0.10;0.10;;;;;;;11.98;49.74;94492.44;6246991;23;20035;-78
2021/01/22 11:30:12;;;;;;;4.20;0.35;;;;;;;12.01;49.46;94489.34;6245809;23;20023;-77
2021/01/22 11:32:39;;;;;;;4.65;0.30;;;;;;;12.06;49.45;94484.97;6245464;23;20028;-81
2021/01/22 11:35:09;;;;;;;1.48;0.50;;;;;;;12.14;49.48;94474.09;6245643;23;20075;-79
2021/01/22 11:37:36;;;;;;;1.00;0.38;;;;;;;12.23;50.50;94474.47;6244604;23;20101;-77
2021/01/22 11:40:04;;;;;;;1.60;0.45;;;;;;;12.34;50.64;94470.91;6244150;23;20023;-77
2021/01/22 11:42:32;;;;;;;0.20;0.20;;;;;;;12.48;49.34;94462.69;6245956;23;20024;-77
2021/01/22 11:44:58;;;;;;;2.45;0.45;;;;;;;12.61;48.60;94464.91;6244805;23;20099;-77
2021/01/22 11:47:25;;;;;;;0.93;0.28;;;;;;;12.74;48.21;94455.88;6245186;23;20020;-77
2021/01/22 11:49:52;;;;;;;2.70;0.25;;;;;;;12.91;48.42;94450.56;6244556;23;20020;-77
2021/01/22 11:52:18;;;;;;;2.47;0.40;;;;;;;13.08;46.39;94448.59;6244482;23;20463;-77
2021/01/22 11:54:45;;;;;;;2.00;0.30;;;;;;;13.28;46.95;94449.81;6244859;23;20035;-78
2021/01/22 11:57:11;;;;;;;2.30;0.30;;;;;;;13.44;45.40;94443.66;6244500;23;20020;-77
2021/01/22 11:59:39;;;;;;;1.67;0.32;;;;;;;13.58;44.48;94444.78;6244327;23;20103;-77
2021/01/22 12:02:06;;;;;;;1.02;0.05;;;;;;;13.71;44.76;94445.38;6243837;23;20531;-77
2021/01/22 12:04:33;;;;;;;1.35;0.20;;;;;;;13.87;44.42;94452.28;6246083;23;20028;-77
2021/01/22 12:07:00;;;;;;;0.28;0.10;;;;;;;14.06;43.48;94455.25;6246827;23;20024;-78
2021/01/22 12:09:27;;;;;;;1.55;0.20;;;;;;;14.25;42.54;94441.69;6246106;23;20058;-79
2021/01/22 12:11:54;;;;;;;1.58;0.20;;;;;;;14.40;44.01;94446.97;6247704;23;20024;-79
2021/01/22 12:14:21;;;;;;;1.52;0.10;;;;;;;14.49;42.27;94437.53;6247059;23;20022;-79
2021/01/22 12:16:48;;;;;;;5.05;0.20;;;;;;;14.60;40.97;94438.38;6244857;23;20028;-79
2021/01/22 12:19:14;;;;;;;4.40;0.40;;;;;;;14.69;40.35;94449.16;6245222;23;20488;-79
2021/01/22 12:21:41;;;;;;;1.33;0.30;;;;;;;14.70;42.44;94432.38;6245553;23;20027;-79
2021/01/22 12:24:08;;;;;;;0.52;0.22;;;;;;;14.75;40.74;94433.16;6245567;23;20020;-79
2021/01/22 12:26:34;;;;;;;0.10;0.10;;;;;;;14.81;40.38;94423.47;6245490;23;20369;-79
2021/01/22 12:29:02;;;;;;;0.30;0.10;;;;;;;14.78;40.06;94424.78;6246220;23;20020;-78
2021/01/22 12:31:29;;;;;;;0.63;0.15;;;;;;;14.75;40.04;94408.75;6247869;23;20048;-79
2021/01/22 12:33:56;;;;;;;0.35;0.10;;;;;;;14.73;39.47;94416.91;6247098;23;20047;-79
2021/01/22 12:36:23;;;;;;;0.30;0.20;;;;;;;14.69;40.03;94410.59;6247769;23;20022;-79
2021/01/22 12:38:50;;;;;;;0.38;0.30;;;;;;;14.62;40.48;94416.09;6248080;23;20031;-79
2021/01/22 12:41:17;;;;;;;0.30;0.20;;;;;;;14.58;40.81;94420.31;6249100;23;20024;-79
2021/01/22 12:43:43;;;;;;;0.38;0.20;;;;;;;14.53;40.66;94414.22;6247868;23;20095;-79
2021/01/22 12:46:10;;;;;;;0.98;0.25;;;;;;;14.51;42.26;94409.22;6247646;23;20345;-79
2021/01/22 12:48:37;;;;;;;2.22;0.20;;;;;;;14.52;42.34;94402.13;6246842;23;20070;-79
2021/01/22 12:51:05;;;;;;;0.93;0.50;;;;;;;14.48;42.40;94394.00;6247484;23;20055;-79